TGL9301 LFPG-LFKJ
Flight info
| Callsign | TGL9301 |
|---|---|
| Flight time | 1h 25m |
| Altitude | 37000 |
| Route | LATRA DCT LAMUT DCT UTUVA DCT TITVA DCT NOQAS DCT OTROT DCT RETNO DCT KOLON DCT OMARD M623 VAREK |
| Aircraft | A320/M-SDE3FGHIRWY/LB1 |
Departure
| Time | 2026-05-05 15:37 |
|---|---|
| Airport | Charles de Gaulle International Airport (LFPG) |
Arrival
| Time | 2026-05-05 17:02 |
|---|---|
| Airport | Ajaccio Napoléon Bonaparte airport (LFKJ) |
| Time | Latitude | Longitude | Altitude | Speed | Heading |
|---|---|---|---|---|---|
| 2026-05-05 15:16 | 49.01678 | 2.54048 | 359 ft | 0 kts | 147° |
| 2026-05-05 15:26 | 49.01691 | 2.54036 | 363 ft | 4 kts | 156° |
| 2026-05-05 15:26 | 49.01716 | 2.54025 | 361 ft | 4 kts | 176° |
| 2026-05-05 15:27 | 49.01743 | 2.54028 | 361 ft | 4 kts | 196° |
| 2026-05-05 15:27 | 49.01768 | 2.54043 | 362 ft | 4 kts | 212° |
| 2026-05-05 15:27 | 49.01789 | 2.54068 | 358 ft | 4 kts | 226° |
| 2026-05-05 15:27 | 49.01805 | 2.54100 | 364 ft | 4 kts | 246° |
| 2026-05-05 15:28 | 49.01810 | 2.54122 | 361 ft | 0 kts | 267° |
| 2026-05-05 15:30 | 49.01810 | 2.54111 | 362 ft | 2 kts | 266° |
| 2026-05-05 15:30 | 49.01809 | 2.54106 | 364 ft | 2 kts | 266° |
| 2026-05-05 15:30 | 49.01809 | 2.54090 | 364 ft | 2 kts | 265° |
| 2026-05-05 15:30 | 49.01807 | 2.54056 | 360 ft | 1 kts | 265° |
| 2026-05-05 15:31 | 49.01806 | 2.54040 | 359 ft | 4 kts | 265° |
| 2026-05-05 15:31 | 49.01801 | 2.53949 | 361 ft | 10 kts | 265° |
| 2026-05-05 15:31 | 49.01797 | 2.53876 | 354 ft | 5 kts | 265° |
| 2026-05-05 15:31 | 49.01792 | 2.53796 | 358 ft | 6 kts | 265° |
| 2026-05-05 15:32 | 49.01785 | 2.53684 | 358 ft | 17 kts | 265° |
| 2026-05-05 15:32 | 49.01776 | 2.53519 | 358 ft | 13 kts | 265° |
| 2026-05-05 15:32 | 49.01771 | 2.53414 | 356 ft | 12 kts | 265° |
| 2026-05-05 15:32 | 49.01761 | 2.53228 | 355 ft | 18 kts | 265° |
| 2026-05-05 15:33 | 49.01764 | 2.53068 | 361 ft | 13 kts | 284° |
| 2026-05-05 15:33 | 49.01804 | 2.52931 | 360 ft | 15 kts | 296° |
| 2026-05-05 15:33 | 49.01828 | 2.52775 | 358 ft | 16 kts | 269° |
| 2026-05-05 15:33 | 49.01817 | 2.52626 | 358 ft | 14 kts | 263° |
| 2026-05-05 15:34 | 49.01808 | 2.52501 | 354 ft | 11 kts | 263° |
| 2026-05-05 15:34 | 49.01802 | 2.52328 | 361 ft | 18 kts | 264° |
| 2026-05-05 15:34 | 49.01799 | 2.52167 | 356 ft | 12 kts | 293° |
| 2026-05-05 15:34 | 49.01865 | 2.52126 | 354 ft | 12 kts | 353° |
| 2026-05-05 15:35 | 49.01956 | 2.52113 | 357 ft | 12 kts | 355° |
| 2026-05-05 15:35 | 49.02040 | 2.52106 | 354 ft | 14 kts | 1° |
| 2026-05-05 15:35 | 49.02108 | 2.52157 | 355 ft | 8 kts | 88° |
| 2026-05-05 15:35 | 49.02110 | 2.52179 | 356 ft | 0 kts | 82° |
| 2026-05-05 15:36 | 49.02110 | 2.52180 | 356 ft | 3 kts | 82° |
| 2026-05-05 15:36 | 49.02135 | 2.52605 | 359 ft | 75 kts | 87° |
| 2026-05-05 15:36 | 49.02197 | 2.53698 | 353 ft | 130 kts | 85° |
| 2026-05-05 15:37 | 49.02290 | 2.55293 | 458 ft | 164 kts | 81° |
| 2026-05-05 15:37 | 49.02379 | 2.56950 | 1178 ft | 160 kts | 83° |
| 2026-05-05 15:37 | 49.02456 | 2.58675 | 1852 ft | 162 kts | 81° |
| 2026-05-05 15:37 | 49.02518 | 2.60365 | 2451 ft | 165 kts | 82° |
| 2026-05-05 15:38 | 49.02612 | 2.62199 | 2750 ft | 184 kts | 81° |
| 2026-05-05 15:38 | 49.02734 | 2.64264 | 3007 ft | 207 kts | 83° |
| 2026-05-05 15:38 | 49.02869 | 2.66561 | 3402 ft | 229 kts | 84° |
| 2026-05-05 15:38 | 49.03011 | 2.69111 | 3926 ft | 251 kts | 84° |
| 2026-05-05 15:39 | 49.03154 | 2.71810 | 4751 ft | 260 kts | 84° |
| 2026-05-05 15:39 | 49.03297 | 2.74574 | 5655 ft | 264 kts | 84° |
| 2026-05-05 15:39 | 49.03441 | 2.77390 | 6525 ft | 268 kts | 85° |
| 2026-05-05 15:39 | 49.03586 | 2.80226 | 7426 ft | 269 kts | 85° |
| 2026-05-05 15:40 | 49.03731 | 2.83090 | 8265 ft | 273 kts | 85° |
| 2026-05-05 15:40 | 49.03877 | 2.85993 | 9111 ft | 277 kts | 85° |
| 2026-05-05 15:40 | 49.04026 | 2.88933 | 9939 ft | 280 kts | 85° |
| 2026-05-05 15:40 | 49.04167 | 2.91987 | 10333 ft | 301 kts | 89° |
| 2026-05-05 15:41 | 49.03801 | 2.95209 | 10710 ft | 318 kts | 111° |
| 2026-05-05 15:41 | 49.02605 | 2.98072 | 11392 ft | 325 kts | 133° |
| 2026-05-05 15:41 | 49.00748 | 3.00054 | 12159 ft | 331 kts | 156° |
| 2026-05-05 15:41 | 48.98496 | 3.00803 | 12912 ft | 336 kts | 176° |
| 2026-05-05 15:42 | 48.96151 | 3.00917 | 13650 ft | 339 kts | 177° |
| 2026-05-05 15:42 | 48.93780 | 3.00972 | 14275 ft | 342 kts | 182° |
| 2026-05-05 15:42 | 48.91452 | 3.00195 | 14919 ft | 347 kts | 202° |
| 2026-05-05 15:42 | 48.89416 | 2.98239 | 15601 ft | 352 kts | 221° |
| 2026-05-05 15:43 | 48.87881 | 2.95323 | 16272 ft | 356 kts | 235° |
| 2026-05-05 15:43 | 48.86506 | 2.92174 | 16953 ft | 359 kts | 235° |
| 2026-05-05 15:43 | 48.85136 | 2.88990 | 17623 ft | 362 kts | 235° |
| 2026-05-05 15:43 | 48.83777 | 2.85826 | 18246 ft | 364 kts | 235° |
| 2026-05-05 15:44 | 48.82383 | 2.82599 | 18794 ft | 367 kts | 235° |
| 2026-05-05 15:44 | 48.80950 | 2.79307 | 19335 ft | 371 kts | 235° |
| 2026-05-05 15:44 | 48.79540 | 2.76074 | 19864 ft | 374 kts | 234° |
| 2026-05-05 15:44 | 48.78098 | 2.72775 | 20395 ft | 377 kts | 235° |
| 2026-05-05 15:45 | 48.76642 | 2.69451 | 20914 ft | 381 kts | 235° |
| 2026-05-05 15:45 | 48.75171 | 2.66095 | 21421 ft | 384 kts | 234° |
| 2026-05-05 15:45 | 48.73676 | 2.62716 | 21915 ft | 387 kts | 232° |
| 2026-05-05 15:45 | 48.71926 | 2.59619 | 22355 ft | 389 kts | 221° |
| 2026-05-05 15:46 | 48.69820 | 2.57041 | 22769 ft | 391 kts | 212° |
| 2026-05-05 15:46 | 48.67478 | 2.54919 | 23238 ft | 393 kts | 208° |
| 2026-05-05 15:46 | 48.65112 | 2.52820 | 23659 ft | 396 kts | 209° |
| 2026-05-05 15:46 | 48.62732 | 2.50699 | 24043 ft | 399 kts | 210° |
| 2026-05-05 15:47 | 48.60337 | 2.48559 | 24436 ft | 401 kts | 208° |
| 2026-05-05 15:47 | 48.58743 | 2.47135 | 24687 ft | 403 kts | 209° |
| 2026-05-05 15:47 | 48.55504 | 2.44248 | 25196 ft | 406 kts | 209° |
| 2026-05-05 15:47 | 48.53044 | 2.42131 | 25568 ft | 408 kts | 204° |
| 2026-05-05 15:48 | 48.50411 | 2.40570 | 25951 ft | 408 kts | 194° |
| 2026-05-05 15:48 | 48.47628 | 2.39728 | 26315 ft | 408 kts | 184° |
| 2026-05-05 15:48 | 48.44793 | 2.39623 | 26664 ft | 408 kts | 175° |
| 2026-05-05 15:48 | 48.41945 | 2.39862 | 27054 ft | 411 kts | 175° |
| 2026-05-05 15:49 | 48.39081 | 2.40093 | 27430 ft | 415 kts | 175° |
| 2026-05-05 15:49 | 48.36186 | 2.40320 | 27793 ft | 418 kts | 175° |
| 2026-05-05 15:49 | 48.33275 | 2.40543 | 28212 ft | 420 kts | 175° |
| 2026-05-05 15:49 | 48.30346 | 2.40799 | 28609 ft | 422 kts | 171° |
| 2026-05-05 15:50 | 48.27460 | 2.41583 | 28950 ft | 421 kts | 162° |
| 2026-05-05 15:50 | 48.24681 | 2.42970 | 29286 ft | 422 kts | 158° |
| 2026-05-05 15:50 | 48.21911 | 2.44455 | 29628 ft | 424 kts | 158° |
| 2026-05-05 15:50 | 48.19127 | 2.45943 | 29975 ft | 426 kts | 158° |
| 2026-05-05 15:51 | 48.16326 | 2.47433 | 30269 ft | 428 kts | 158° |
| 2026-05-05 15:51 | 48.13511 | 2.48923 | 30574 ft | 430 kts | 158° |
| 2026-05-05 15:51 | 48.10686 | 2.50415 | 30872 ft | 431 kts | 158° |
| 2026-05-05 15:51 | 48.07857 | 2.51910 | 31142 ft | 432 kts | 159° |
| 2026-05-05 15:52 | 48.05002 | 2.53381 | 31280 ft | 437 kts | 159° |
| 2026-05-05 15:52 | 48.02109 | 2.54819 | 31458 ft | 439 kts | 160° |
| 2026-05-05 15:52 | 47.99233 | 2.56217 | 31729 ft | 440 kts | 160° |
| 2026-05-05 15:52 | 47.96282 | 2.57637 | 32069 ft | 440 kts | 161° |
| 2026-05-05 15:53 | 47.93376 | 2.59038 | 32412 ft | 439 kts | 161° |
| 2026-05-05 15:53 | 47.90516 | 2.60429 | 32748 ft | 438 kts | 161° |
| 2026-05-05 15:53 | 47.87626 | 2.61844 | 33109 ft | 437 kts | 161° |
| 2026-05-05 15:53 | 47.84747 | 2.63261 | 33478 ft | 435 kts | 160° |
| 2026-05-05 15:54 | 47.81876 | 2.64673 | 33833 ft | 434 kts | 161° |
| 2026-05-05 15:54 | 47.79011 | 2.66075 | 34119 ft | 433 kts | 161° |
| 2026-05-05 15:54 | 47.76146 | 2.67475 | 34378 ft | 433 kts | 162° |
| 2026-05-05 15:54 | 47.73285 | 2.68872 | 34629 ft | 433 kts | 162° |
| 2026-05-05 15:55 | 47.70414 | 2.70270 | 34840 ft | 435 kts | 162° |
| 2026-05-05 15:55 | 47.67544 | 2.71664 | 35119 ft | 434 kts | 162° |
| 2026-05-05 15:55 | 47.64667 | 2.73063 | 35329 ft | 435 kts | 162° |
| 2026-05-05 15:55 | 47.61792 | 2.74461 | 35563 ft | 435 kts | 162° |
| 2026-05-05 15:56 | 47.58910 | 2.75861 | 35757 ft | 435 kts | 162° |
| 2026-05-05 15:56 | 47.56033 | 2.77258 | 35985 ft | 435 kts | 163° |
| 2026-05-05 15:56 | 47.53158 | 2.78651 | 36202 ft | 435 kts | 163° |
| 2026-05-05 15:56 | 47.50275 | 2.80047 | 36383 ft | 436 kts | 163° |
| 2026-05-05 15:57 | 47.47391 | 2.81445 | 36540 ft | 437 kts | 163° |
| 2026-05-05 15:57 | 47.44501 | 2.82841 | 36753 ft | 437 kts | 163° |
| 2026-05-05 15:57 | 47.41598 | 2.84237 | 36813 ft | 440 kts | 163° |
| 2026-05-05 15:58 | 47.35762 | 2.87030 | 36825 ft | 441 kts | 163° |
| 2026-05-05 15:58 | 47.29918 | 2.89829 | 36826 ft | 442 kts | 163° |
| 2026-05-05 15:59 | 47.24080 | 2.92626 | 36827 ft | 441 kts | 164° |
| 2026-05-05 15:59 | 47.18246 | 2.95418 | 36835 ft | 441 kts | 164° |
| 2026-05-05 16:00 | 47.12404 | 2.98194 | 36837 ft | 441 kts | 164° |
| 2026-05-05 16:00 | 47.06527 | 3.00797 | 36872 ft | 440 kts | 166° |
| 2026-05-05 16:01 | 47.00621 | 3.03161 | 36878 ft | 440 kts | 167° |
| 2026-05-05 16:01 | 46.94709 | 3.05509 | 36876 ft | 440 kts | 166° |
| 2026-05-05 16:02 | 46.88814 | 3.07909 | 36873 ft | 440 kts | 166° |
| 2026-05-05 16:02 | 46.82923 | 3.10338 | 36868 ft | 440 kts | 166° |
| 2026-05-05 16:03 | 46.77029 | 3.12757 | 36866 ft | 440 kts | 166° |
| 2026-05-05 16:03 | 46.71134 | 3.15167 | 36859 ft | 440 kts | 166° |
| 2026-05-05 16:04 | 46.65241 | 3.17549 | 36859 ft | 439 kts | 166° |
| 2026-05-05 16:04 | 46.59347 | 3.19935 | 36864 ft | 439 kts | 166° |
| 2026-05-05 16:05 | 46.53460 | 3.22321 | 36861 ft | 439 kts | 166° |
| 2026-05-05 16:05 | 46.47565 | 3.24706 | 36848 ft | 440 kts | 167° |
| 2026-05-05 16:06 | 46.41671 | 3.27083 | 36859 ft | 440 kts | 167° |
| 2026-05-05 16:06 | 46.35814 | 3.29436 | 36864 ft | 440 kts | 167° |
| 2026-05-05 16:07 | 46.29915 | 3.31802 | 36861 ft | 440 kts | 167° |
| 2026-05-05 16:07 | 46.24010 | 3.34164 | 36862 ft | 440 kts | 167° |
| 2026-05-05 16:08 | 46.18109 | 3.36519 | 36860 ft | 440 kts | 167° |
| 2026-05-05 16:08 | 46.13163 | 3.38486 | 36863 ft | 440 kts | 167° |
| 2026-05-05 16:09 | 46.07296 | 3.40808 | 36861 ft | 440 kts | 167° |
| 2026-05-05 16:09 | 46.01407 | 3.43138 | 36864 ft | 440 kts | 167° |
| 2026-05-05 16:10 | 45.95498 | 3.45480 | 36872 ft | 440 kts | 167° |
| 2026-05-05 16:10 | 45.89601 | 3.47808 | 36891 ft | 440 kts | 168° |
| 2026-05-05 16:11 | 45.83955 | 3.51314 | 36892 ft | 448 kts | 150° |
| 2026-05-05 16:12 | 45.73556 | 3.61165 | 36896 ft | 448 kts | 150° |
| 2026-05-05 16:13 | 45.60511 | 3.73382 | 36907 ft | 448 kts | 150° |
| 2026-05-05 16:13 | 45.55290 | 3.78261 | 36909 ft | 448 kts | 151° |
| 2026-05-05 16:14 | 45.44868 | 3.87944 | 36895 ft | 447 kts | 151° |
| 2026-05-05 16:15 | 45.34967 | 3.98604 | 36899 ft | 456 kts | 133° |
| 2026-05-05 16:16 | 45.27469 | 4.13254 | 36881 ft | 459 kts | 130° |
| 2026-05-05 16:17 | 45.21835 | 4.24237 | 36869 ft | 460 kts | 131° |
| 2026-05-05 16:18 | 45.16199 | 4.35179 | 36878 ft | 460 kts | 131° |
| 2026-05-05 16:19 | 45.10469 | 4.46171 | 36871 ft | 459 kts | 134° |
| 2026-05-05 16:19 | 45.04275 | 4.56387 | 36874 ft | 457 kts | 137° |
| 2026-05-05 16:20 | 44.95812 | 4.69880 | 36873 ft | 460 kts | 136° |
| 2026-05-05 16:22 | 44.85316 | 4.86944 | 36881 ft | 460 kts | 137° |
| 2026-05-05 16:23 | 44.76880 | 5.00517 | 36897 ft | 460 kts | 138° |
| 2026-05-05 16:23 | 44.70566 | 5.10674 | 36903 ft | 459 kts | 138° |
| 2026-05-05 16:24 | 44.66352 | 5.17412 | 36904 ft | 459 kts | 138° |
| 2026-05-05 16:25 | 44.60032 | 5.27505 | 36907 ft | 459 kts | 138° |
| 2026-05-05 16:25 | 44.53690 | 5.37572 | 36894 ft | 459 kts | 139° |
| 2026-05-05 16:26 | 44.45266 | 5.50906 | 36907 ft | 458 kts | 139° |
| 2026-05-05 16:27 | 44.41031 | 5.57571 | 36913 ft | 458 kts | 139° |
| 2026-05-05 16:27 | 44.36961 | 5.64463 | 36914 ft | 465 kts | 131° |
| 2026-05-05 16:28 | 44.33345 | 5.71956 | 36897 ft | 465 kts | 131° |
| 2026-05-05 16:28 | 44.29715 | 5.79435 | 36898 ft | 465 kts | 131° |
| 2026-05-05 16:29 | 44.26068 | 5.86902 | 36882 ft | 466 kts | 131° |
| 2026-05-05 16:29 | 44.22419 | 5.94362 | 36900 ft | 467 kts | 131° |
| 2026-05-05 16:30 | 44.18762 | 6.01838 | 36912 ft | 467 kts | 131° |
| 2026-05-05 16:30 | 44.15095 | 6.09327 | 36899 ft | 467 kts | 131° |
| 2026-05-05 16:31 | 44.11430 | 6.16783 | 36904 ft | 468 kts | 131° |
| 2026-05-05 16:31 | 44.07738 | 6.24257 | 36921 ft | 468 kts | 131° |
| 2026-05-05 16:32 | 44.04071 | 6.31666 | 36897 ft | 469 kts | 132° |
| 2026-05-05 16:32 | 44.00373 | 6.39129 | 36907 ft | 469 kts | 132° |
| 2026-05-05 16:33 | 43.96665 | 6.46598 | 36909 ft | 470 kts | 132° |
| 2026-05-05 16:33 | 43.92951 | 6.54036 | 36906 ft | 470 kts | 132° |
| 2026-05-05 16:34 | 43.89210 | 6.61507 | 36927 ft | 471 kts | 132° |
| 2026-05-05 16:34 | 43.85478 | 6.68971 | 36938 ft | 471 kts | 132° |
| 2026-05-05 16:35 | 43.81744 | 6.76408 | 36928 ft | 471 kts | 132° |
| 2026-05-05 16:35 | 43.77995 | 6.83847 | 36936 ft | 471 kts | 133° |
| 2026-05-05 16:36 | 43.74237 | 6.91278 | 36939 ft | 472 kts | 133° |
| 2026-05-05 16:36 | 43.69855 | 6.97785 | 36952 ft | 454 kts | 150° |
| 2026-05-05 16:37 | 43.64840 | 7.03012 | 36963 ft | 452 kts | 151° |
| 2026-05-05 16:37 | 43.59799 | 7.08255 | 36949 ft | 453 kts | 151° |
| 2026-05-05 16:38 | 43.54765 | 7.13494 | 36929 ft | 453 kts | 151° |
| 2026-05-05 16:38 | 43.49731 | 7.18730 | 36934 ft | 454 kts | 151° |
| 2026-05-05 16:39 | 43.44688 | 7.23965 | 36940 ft | 454 kts | 151° |
| 2026-05-05 16:39 | 43.39641 | 7.29178 | 36923 ft | 454 kts | 152° |
| 2026-05-05 16:40 | 43.37109 | 7.31786 | 36687 ft | 454 kts | 152° |
| 2026-05-05 16:40 | 43.34582 | 7.34389 | 36424 ft | 453 kts | 152° |
| 2026-05-05 16:40 | 43.32061 | 7.36986 | 36161 ft | 453 kts | 152° |
| 2026-05-05 16:40 | 43.29544 | 7.39578 | 35913 ft | 452 kts | 153° |
| 2026-05-05 16:41 | 43.27027 | 7.42169 | 35653 ft | 452 kts | 153° |
| 2026-05-05 16:41 | 43.24514 | 7.44751 | 35408 ft | 451 kts | 153° |
| 2026-05-05 16:41 | 43.22036 | 7.47293 | 35164 ft | 451 kts | 153° |
| 2026-05-05 16:41 | 43.19526 | 7.49864 | 34918 ft | 450 kts | 153° |
| 2026-05-05 16:42 | 43.17014 | 7.52434 | 34179 ft | 453 kts | 154° |
| 2026-05-05 16:42 | 43.14473 | 7.55020 | 33197 ft | 457 kts | 154° |
| 2026-05-05 16:42 | 43.11897 | 7.57571 | 32249 ft | 454 kts | 158° |
| 2026-05-05 16:42 | 43.09164 | 7.59652 | 31283 ft | 446 kts | 165° |
| 2026-05-05 16:43 | 43.06298 | 7.61215 | 30284 ft | 444 kts | 169° |
| 2026-05-05 16:43 | 43.03386 | 7.62669 | 29139 ft | 448 kts | 169° |
| 2026-05-05 16:43 | 43.00451 | 7.64119 | 28033 ft | 449 kts | 168° |
| 2026-05-05 16:43 | 42.97500 | 7.65568 | 26873 ft | 453 kts | 167° |
| 2026-05-05 16:44 | 42.94549 | 7.67027 | 26165 ft | 447 kts | 167° |
| 2026-05-05 16:44 | 42.91653 | 7.68470 | 25403 ft | 442 kts | 166° |
| 2026-05-05 16:44 | 42.88778 | 7.69902 | 24644 ft | 437 kts | 166° |
| 2026-05-05 16:44 | 42.85936 | 7.71309 | 23906 ft | 433 kts | 166° |
| 2026-05-05 16:45 | 42.83112 | 7.72703 | 23123 ft | 430 kts | 165° |
| 2026-05-05 16:45 | 42.80323 | 7.74079 | 22462 ft | 423 kts | 165° |
| 2026-05-05 16:45 | 42.77571 | 7.75437 | 21787 ft | 418 kts | 165° |
| 2026-05-05 16:45 | 42.74851 | 7.76774 | 21113 ft | 413 kts | 165° |
| 2026-05-05 16:46 | 42.72165 | 7.78095 | 20511 ft | 408 kts | 165° |
| 2026-05-05 16:46 | 42.69511 | 7.79400 | 19892 ft | 404 kts | 165° |
| 2026-05-05 16:46 | 42.66883 | 7.80688 | 19308 ft | 399 kts | 165° |
| 2026-05-05 16:46 | 42.64288 | 7.81959 | 18733 ft | 395 kts | 165° |
| 2026-05-05 16:47 | 42.61720 | 7.83218 | 18184 ft | 390 kts | 165° |
| 2026-05-05 16:47 | 42.59180 | 7.84470 | 17614 ft | 386 kts | 165° |
| 2026-05-05 16:47 | 42.56679 | 7.85702 | 17108 ft | 380 kts | 165° |
| 2026-05-05 16:47 | 42.54211 | 7.86911 | 16620 ft | 374 kts | 165° |
| 2026-05-05 16:48 | 42.51782 | 7.88097 | 16134 ft | 369 kts | 165° |
| 2026-05-05 16:48 | 42.49379 | 7.89270 | 15648 ft | 365 kts | 165° |
| 2026-05-05 16:48 | 42.47000 | 7.90428 | 15165 ft | 361 kts | 165° |
| 2026-05-05 16:48 | 42.44645 | 7.91574 | 14670 ft | 359 kts | 165° |
| 2026-05-05 16:49 | 42.42304 | 7.92710 | 14164 ft | 356 kts | 165° |
| 2026-05-05 16:49 | 42.39976 | 7.93838 | 13638 ft | 355 kts | 165° |
| 2026-05-05 16:49 | 42.37657 | 7.94962 | 13068 ft | 353 kts | 165° |
| 2026-05-05 16:49 | 42.35366 | 7.96127 | 12504 ft | 353 kts | 160° |
| 2026-05-05 16:50 | 42.33241 | 7.97792 | 11924 ft | 356 kts | 148° |
| 2026-05-05 16:50 | 42.31402 | 8.00059 | 11317 ft | 360 kts | 135° |
| 2026-05-05 16:50 | 42.29968 | 8.02842 | 10871 ft | 360 kts | 121° |
| 2026-05-05 16:50 | 42.28991 | 8.05889 | 10743 ft | 347 kts | 115° |
| 2026-05-05 16:51 | 42.28127 | 8.08821 | 10616 ft | 334 kts | 115° |
| 2026-05-05 16:51 | 42.27258 | 8.11712 | 10497 ft | 322 kts | 116° |
| 2026-05-05 16:51 | 42.26424 | 8.14468 | 10376 ft | 312 kts | 116° |
| 2026-05-05 16:51 | 42.25612 | 8.17137 | 10176 ft | 304 kts | 116° |
| 2026-05-05 16:52 | 42.24824 | 8.19724 | 10103 ft | 301 kts | 116° |
| 2026-05-05 16:52 | 42.24031 | 8.22334 | 10007 ft | 300 kts | 116° |
| 2026-05-05 16:52 | 42.23239 | 8.24940 | 9822 ft | 301 kts | 116° |
| 2026-05-05 16:52 | 42.22443 | 8.27562 | 9367 ft | 301 kts | 115° |
| 2026-05-05 16:53 | 42.21657 | 8.30163 | 8985 ft | 299 kts | 115° |
| 2026-05-05 16:53 | 42.20876 | 8.32751 | 8647 ft | 296 kts | 115° |
| 2026-05-05 16:53 | 42.20102 | 8.35315 | 8220 ft | 295 kts | 115° |
| 2026-05-05 16:53 | 42.19334 | 8.37854 | 7930 ft | 290 kts | 115° |
| 2026-05-05 16:54 | 42.18572 | 8.40367 | 7533 ft | 289 kts | 115° |
| 2026-05-05 16:54 | 42.17819 | 8.42847 | 7028 ft | 283 kts | 115° |
| 2026-05-05 16:54 | 42.17079 | 8.45279 | 6565 ft | 279 kts | 115° |
| 2026-05-05 16:54 | 42.16308 | 8.47665 | 6182 ft | 277 kts | 121° |
| 2026-05-05 16:55 | 42.15200 | 8.49755 | 5767 ft | 273 kts | 135° |
| 2026-05-05 16:55 | 42.13786 | 8.51433 | 5408 ft | 269 kts | 143° |
| 2026-05-05 16:55 | 42.12338 | 8.53043 | 5006 ft | 269 kts | 143° |
| 2026-05-05 16:55 | 42.10913 | 8.54647 | 4627 ft | 266 kts | 142° |
| 2026-05-05 16:56 | 42.09497 | 8.56242 | 4200 ft | 265 kts | 143° |
| 2026-05-05 16:56 | 42.08088 | 8.57829 | 3766 ft | 264 kts | 142° |
| 2026-05-05 16:56 | 42.07161 | 8.58870 | 3562 ft | 260 kts | 142° |
| 2026-05-05 16:56 | 42.05805 | 8.60398 | 3412 ft | 248 kts | 143° |
| 2026-05-05 16:57 | 42.04516 | 8.61853 | 3297 ft | 236 kts | 143° |
| 2026-05-05 16:57 | 42.03288 | 8.63233 | 3196 ft | 224 kts | 143° |
| 2026-05-05 16:57 | 42.02105 | 8.64559 | 3105 ft | 219 kts | 143° |
| 2026-05-05 16:57 | 42.01090 | 8.66086 | 3004 ft | 222 kts | 122° |
| 2026-05-05 16:58 | 42.00579 | 8.68050 | 3003 ft | 226 kts | 102° |
| 2026-05-05 16:58 | 42.00317 | 8.70144 | 3004 ft | 227 kts | 102° |
| 2026-05-05 16:58 | 42.00059 | 8.72160 | 3001 ft | 212 kts | 101° |
| 2026-05-05 16:58 | 41.99813 | 8.74057 | 2910 ft | 203 kts | 100° |
| 2026-05-05 16:59 | 41.99569 | 8.75900 | 2555 ft | 195 kts | 102° |
| 2026-05-05 16:59 | 41.99343 | 8.77616 | 2229 ft | 179 kts | 101° |
| 2026-05-05 16:59 | 41.99138 | 8.79185 | 1960 ft | 163 kts | 104° |
| 2026-05-05 16:59 | 41.98940 | 8.80638 | 1694 ft | 154 kts | 107° |
| 2026-05-05 17:00 | 41.98435 | 8.81857 | 1393 ft | 147 kts | 139° |
| 2026-05-05 17:00 | 41.97608 | 8.82566 | 1121 ft | 138 kts | 160° |
| 2026-05-05 17:00 | 41.96671 | 8.82793 | 970 ft | 137 kts | 183° |
| 2026-05-05 17:00 | 41.95760 | 8.82455 | 735 ft | 135 kts | 206° |
| 2026-05-05 17:01 | 41.94924 | 8.81880 | 589 ft | 134 kts | 205° |
| 2026-05-05 17:01 | 41.94082 | 8.81329 | 378 ft | 134 kts | 207° |
| 2026-05-05 17:01 | 41.93246 | 8.80793 | 151 ft | 133 kts | 205° |
| 2026-05-05 17:01 | 41.92427 | 8.80273 | 28 ft | 121 kts | 206° |
| 2026-05-05 17:02 | 41.91910 | 8.79943 | 20 ft | 62 kts | 205° |
| 2026-05-05 17:02 | 41.91573 | 8.79731 | 18 ft | 47 kts | 205° |
| 2026-05-05 17:02 | 41.91325 | 8.79579 | 22 ft | 21 kts | 205° |
| 2026-05-05 17:02 | 41.91232 | 8.79472 | 23 ft | 13 kts | 273° |
| 2026-05-05 17:03 | 41.91292 | 8.79398 | 23 ft | 11 kts | 332° |
| 2026-05-05 17:03 | 41.91346 | 8.79361 | 26 ft | 5 kts | 334° |
| 2026-05-05 17:03 | 41.91381 | 8.79341 | 29 ft | 8 kts | 342° |
| 2026-05-05 17:03 | 41.91444 | 8.79334 | 29 ft | 9 kts | 10° |
| 2026-05-05 17:04 | 41.91500 | 8.79359 | 26 ft | 9 kts | 21° |
| 2026-05-05 17:04 | 41.91552 | 8.79392 | 31 ft | 9 kts | 25° |
| 2026-05-05 17:04 | 41.91636 | 8.79445 | 30 ft | 14 kts | 25° |
| 2026-05-05 17:04 | 41.91720 | 8.79496 | 30 ft | 13 kts | 24° |
| 2026-05-05 17:05 | 41.91797 | 8.79542 | 27 ft | 8 kts | 22° |
| 2026-05-05 17:05 | 41.91828 | 8.79517 | 27 ft | 4 kts | 325° |
| 2026-05-05 17:05 | 41.91844 | 8.79508 | 29 ft | 0 kts | 341° |